createdAt,value
2018-12-27T00:01:26.986Z,-0.01
2018-12-27T00:10:10.014Z,0.04
2018-12-27T00:14:17.059Z,-0.05
2018-12-27T00:18:24.072Z,-0.04
2018-12-27T00:22:30.936Z,0.00
2018-12-27T00:26:37.926Z,-0.05
2018-12-27T00:30:45.046Z,0.00
2018-12-27T00:34:52.244Z,0.05
2018-12-27T00:38:59.409Z,0.05
2018-12-27T00:43:06.571Z,0.06
2018-12-27T00:51:36.270Z,0.12
2018-12-27T01:00:15.382Z,0.14
2018-12-27T01:04:22.610Z,0.22
2018-12-27T01:08:29.742Z,0.25
2018-12-27T01:12:36.936Z,0.27
2018-12-27T01:16:44.162Z,0.20
2018-12-27T01:20:51.303Z,0.13
2018-12-27T01:24:58.522Z,0.18
2018-12-27T01:29:05.692Z,0.24
2018-12-27T01:33:18.678Z,0.19
2018-12-27T01:37:30.656Z,0.17
2018-12-27T01:41:37.742Z,0.14
2018-12-27T01:50:12.856Z,0.16
2018-12-27T01:54:20.059Z,0.16
2018-12-27T01:59:06.722Z,0.06
2018-12-27T02:03:14.021Z,0.21
2018-12-27T02:07:21.382Z,0.11
2018-12-27T02:11:30.176Z,0.31
2018-12-27T02:15:37.492Z,0.21
2018-12-27T02:19:46.614Z,0.30
2018-12-27T02:23:53.770Z,0.27
2018-12-27T02:28:01.457Z,0.20
2018-12-27T02:32:08.621Z,0.32
2018-12-27T02:40:48.044Z,0.32
2018-12-27T02:44:55.449Z,0.32
2018-12-27T02:49:04.742Z,0.39
2018-12-27T02:57:34.261Z,0.29
2018-12-27T03:01:41.411Z,0.27
2018-12-27T03:05:48.573Z,0.19
2018-12-27T03:09:56.021Z,0.38
2018-12-27T03:14:03.229Z,-0.01
2018-12-27T03:18:50.766Z,0.03
2018-12-27T03:22:59.078Z,0.07
2018-12-27T03:27:06.483Z,-0.04
2018-12-27T03:31:13.604Z,0.09
2018-12-27T03:35:21.256Z,0.12
2018-12-27T03:39:28.913Z,0.08
2018-12-27T03:43:36.212Z,0.05
2018-12-27T03:52:14.853Z,0.14
2018-12-27T03:56:21.993Z,-0.01
2018-12-27T04:00:29.160Z,0.03
2018-12-27T04:04:36.214Z,-0.12
2018-12-27T04:08:43.536Z,-0.08
2018-12-27T04:12:50.762Z,-0.06
2018-12-27T04:16:58.646Z,-0.13
2018-12-27T04:34:45.726Z,-0.02
2018-12-27T04:38:52.610Z,-0.12
2018-12-27T04:43:39.311Z,-0.25
2018-12-27T04:52:36.563Z,-0.29
2018-12-27T04:56:43.964Z,-0.28
2018-12-27T05:00:51.118Z,-0.17
2018-12-27T05:04:58.033Z,-0.23
2018-12-27T05:09:25.575Z,-0.13
2018-12-27T05:13:32.600Z,-0.26
2018-12-27T05:17:53.654Z,-0.37
2018-12-27T05:21:53.580Z,-0.25
2018-12-27T05:26:00.892Z,-0.30
2018-12-27T05:34:31.219Z,-0.26
2018-12-27T05:38:38.130Z,-0.42
2018-12-27T05:42:45.161Z,-0.31
2018-12-27T05:46:52.120Z,-0.43
2018-12-27T05:51:00.203Z,-0.28
2018-12-27T05:59:57.101Z,-0.23
2018-12-27T06:04:11.658Z,-0.22
2018-12-27T06:08:19.634Z,-0.25
2018-12-27T06:12:41.619Z,-0.35
2018-12-27T06:16:50.241Z,-0.05
2018-12-27T06:21:14.278Z,-0.12
2018-12-27T06:25:15.100Z,-0.11
2018-12-27T06:33:50.003Z,-0.16
2018-12-27T06:37:57.625Z,-0.05
2018-12-27T06:42:04.678Z,-0.23
2018-12-27T06:46:11.607Z,-0.28
2018-12-27T06:50:18.677Z,-0.23
2018-12-27T06:54:27.282Z,-0.27
2018-12-27T06:58:37.708Z,-0.13
2018-12-27T07:03:01.993Z,-0.12
2018-12-27T07:07:08.881Z,-0.26
2018-12-27T07:11:16.080Z,-0.54
2018-12-27T07:15:23.125Z,-0.38
2018-12-27T07:19:31.690Z,-0.52
2018-12-27T07:23:46.872Z,-0.59
2018-12-27T07:27:53.951Z,-0.62
2018-12-27T07:32:20.142Z,-0.36
2018-12-27T07:36:27.065Z,-0.48
2018-12-27T07:40:34.039Z,-0.33
2018-12-27T07:44:40.961Z,-0.37
2018-12-27T07:48:48.105Z,-0.38
2018-12-27T07:52:55.075Z,-0.60
2018-12-27T07:57:01.999Z,-0.47
2018-12-27T08:01:09.016Z,-0.43
2018-12-27T08:09:38.710Z,0.32
2018-12-27T08:13:45.668Z,0.83
2018-12-27T08:22:18.588Z,0.52
2018-12-27T08:26:25.537Z,0.31
2018-12-27T08:30:32.527Z,0.26
2018-12-27T08:34:39.613Z,0.14
2018-12-27T08:38:46.542Z,0.21
2018-12-27T08:42:53.594Z,0.25
2018-12-27T08:47:00.629Z,0.28
2018-12-27T08:51:07.641Z,0.07
2018-12-27T08:55:14.637Z,0.15
2018-12-27T08:59:21.602Z,0.05
2018-12-27T09:03:28.568Z,0.22
2018-12-27T09:07:35.478Z,0.33
2018-12-27T09:11:42.498Z,0.46
2018-12-27T09:15:49.521Z,0.62
2018-12-27T09:19:56.522Z,0.59
2018-12-27T09:24:04.998Z,0.50
2018-12-27T09:28:31.768Z,0.71
2018-12-27T09:32:42.316Z,0.83
2018-12-27T09:41:20.979Z,0.97
2018-12-27T09:45:27.993Z,1.40
2018-12-27T09:49:34.982Z,1.23
2018-12-27T09:58:13.584Z,1.18
2018-12-27T10:02:20.644Z,1.03
2018-12-27T10:06:27.726Z,1.00
2018-12-27T10:10:34.762Z,1.20
2018-12-27T10:14:55.886Z,0.97
2018-12-27T10:18:55.743Z,1.20
2018-12-27T10:23:02.687Z,1.19
2018-12-27T10:27:09.602Z,1.29
2018-12-27T10:31:16.726Z,1.45
2018-12-27T10:35:23.780Z,1.27
2018-12-27T10:39:30.627Z,1.38
2018-12-27T10:52:26.835Z,1.39
2018-12-27T11:00:59.591Z,1.49
2018-12-27T11:05:06.712Z,1.68
2018-12-27T11:09:13.666Z,1.75
2018-12-27T11:17:38.981Z,1.78
2018-12-27T11:21:45.866Z,1.70
2018-12-27T11:26:11.595Z,1.87
2018-12-27T11:30:18.823Z,1.95
2018-12-27T11:34:25.927Z,1.95
2018-12-27T11:38:32.847Z,2.13
2018-12-27T11:42:39.900Z,1.96
2018-12-27T11:46:46.756Z,2.02
2018-12-27T11:50:53.776Z,2.15
2018-12-27T11:55:00.809Z,2.08
2018-12-27T11:59:07.825Z,2.44
2018-12-27T12:03:31.979Z,2.24
2018-12-27T12:07:42.548Z,2.49
2018-12-27T12:11:49.946Z,2.42
2018-12-27T12:15:56.985Z,2.68
2018-12-27T12:20:04.981Z,2.88
2018-12-27T12:24:12.123Z,2.65
2018-12-27T12:28:19.522Z,2.72
2018-12-27T12:32:26.842Z,2.65
2018-12-27T12:36:34.502Z,2.32
2018-12-27T12:45:13.918Z,2.39
2018-12-27T12:49:20.948Z,2.24
2018-12-27T12:57:54.348Z,2.37
2018-12-27T13:02:02.137Z,2.13
2018-12-27T13:06:09.409Z,2.11
2018-12-27T13:10:16.734Z,1.97
2018-12-27T13:14:23.806Z,1.99
2018-12-27T13:18:30.873Z,1.95
2018-12-27T13:22:38.173Z,1.92
2018-12-27T13:31:03.692Z,1.84
2018-12-27T13:35:10.970Z,1.99
2018-12-27T13:39:37.398Z,1.65
2018-12-27T13:43:44.627Z,1.83
2018-12-27T13:47:51.834Z,1.47
2018-12-27T13:51:58.846Z,1.72
2018-12-27T14:00:25.427Z,1.55
2018-12-27T14:04:32.428Z,1.39
2018-12-27T14:13:24.495Z,1.48
2018-12-27T14:17:31.392Z,1.45
2018-12-27T14:21:38.299Z,1.29
2018-12-27T14:26:04.181Z,1.24
2018-12-27T14:30:11.270Z,1.28
2018-12-27T14:34:18.154Z,1.33
2018-12-27T14:38:25.126Z,0.82
2018-12-27T14:42:32.052Z,0.90
2018-12-27T14:46:39.470Z,1.16
2018-12-27T14:55:04.932Z,1.23
2018-12-27T14:59:11.844Z,1.00
2018-12-27T15:03:18.869Z,1.56
2018-12-27T15:07:25.822Z,1.67
2018-12-27T15:11:32.831Z,1.24
2018-12-27T15:15:39.633Z,1.21
2018-12-27T15:19:47.545Z,1.25
2018-12-27T15:23:54.497Z,1.04
2018-12-27T15:28:02.712Z,1.12
2018-12-27T15:32:09.914Z,1.01
2018-12-27T15:36:17.150Z,1.44
2018-12-27T15:40:26.852Z,1.46
2018-12-27T15:44:52.887Z,1.15
2018-12-27T15:49:18.825Z,1.02
2018-12-27T15:53:25.852Z,1.04
2018-12-27T15:57:44.506Z,1.04
2018-12-27T16:02:11.958Z,0.92
2018-12-27T16:06:19.159Z,0.78
2018-12-27T16:10:26.332Z,0.90
2018-12-27T16:19:16.181Z,0.86
2018-12-27T16:23:42.220Z,1.00
2018-12-27T16:27:49.191Z,0.83
2018-12-27T16:31:56.282Z,0.84
2018-12-27T16:36:05.390Z,0.79
2018-12-27T16:40:12.431Z,0.76
2018-12-27T16:44:19.314Z,0.64
2018-12-27T16:48:26.300Z,0.58
2018-12-27T16:57:04.952Z,0.63
2018-12-27T17:01:11.945Z,0.68
2018-12-27T17:05:40.891Z,0.68
2018-12-27T17:09:49.137Z,0.73
2018-12-27T17:14:16.925Z,0.79
2018-12-27T17:18:24.083Z,0.83
2018-12-27T17:22:31.176Z,0.71
2018-12-27T17:26:57.411Z,0.81
2018-12-27T17:31:23.221Z,0.76
2018-12-27T17:35:30.400Z,0.66
2018-12-27T17:44:28.523Z,0.53
2018-12-27T17:48:35.724Z,0.55
2018-12-27T17:52:42.776Z,0.19
2018-12-27T17:56:49.673Z,0.28
2018-12-27T18:00:56.768Z,0.40
2018-12-27T18:05:03.857Z,0.43
2018-12-27T18:09:11.085Z,0.39
2018-12-27T18:13:18.142Z,0.50
2018-12-27T18:17:26.676Z,0.51
2018-12-27T18:26:16.639Z,0.56
2018-12-27T18:30:24.234Z,0.65
2018-12-27T18:34:31.303Z,0.64
2018-12-27T18:38:39.866Z,0.53
2018-12-27T18:42:54.584Z,0.72
2018-12-27T18:47:01.829Z,0.79
2018-12-27T18:51:11.231Z,0.66
2018-12-27T18:55:20.229Z,0.69
2018-12-27T18:59:45.993Z,0.71
2018-12-27T19:03:53.135Z,0.64
2018-12-27T19:08:00.344Z,0.62
2018-12-27T19:12:45.638Z,0.79
2018-12-27T19:16:52.708Z,0.72
2018-12-27T19:21:25.985Z,0.52
2018-12-27T19:25:52.369Z,0.45
2018-12-27T19:30:18.486Z,0.59
2018-12-27T19:34:25.417Z,0.62
2018-12-27T19:38:32.595Z,0.61
2018-12-27T19:42:39.892Z,0.53
2018-12-27T19:46:47.111Z,0.59
2018-12-27T19:55:26.201Z,0.40
2018-12-27T19:59:33.364Z,0.46
2018-12-27T20:03:40.262Z,0.38
2018-12-27T20:07:47.489Z,0.36
2018-12-27T20:11:54.792Z,0.38
2018-12-27T20:16:01.995Z,0.24
2018-12-27T20:20:10.054Z,0.47
2018-12-27T20:28:53.365Z,0.22
2018-12-27T20:33:00.477Z,0.12
2018-12-27T20:37:08.165Z,-0.02
2018-12-27T20:41:17.071Z,0.00
2018-12-27T20:45:24.728Z,-0.10
2018-12-27T20:49:52.894Z,0.07
2018-12-27T20:53:59.945Z,0.16
2018-12-27T21:02:46.804Z,0.09
2018-12-27T21:11:21.662Z,0.06
2018-12-27T21:15:28.613Z,0.07
2018-12-27T21:19:38.746Z,0.17
2018-12-27T21:24:05.963Z,0.06
2018-12-27T21:33:11.930Z,0.31
2018-12-27T21:37:19.708Z,0.22
2018-12-27T21:41:26.801Z,0.27
2018-12-27T21:45:36.661Z,0.33
2018-12-27T21:50:10.503Z,0.36
2018-12-27T21:58:56.691Z,0.45
2018-12-27T22:03:03.690Z,0.55
2018-12-27T22:07:25.439Z,0.45
2018-12-27T22:11:39.303Z,0.48
2018-12-27T22:15:46.485Z,0.55
2018-12-27T22:19:54.015Z,0.39
2018-12-27T22:24:01.040Z,0.40
2018-12-27T22:28:08.095Z,0.24
2018-12-27T22:32:15.183Z,0.24
2018-12-27T22:36:22.267Z,0.07
2018-12-27T22:40:29.470Z,-0.02
2018-12-27T22:44:36.594Z,0.04
2018-12-27T22:49:25.643Z,0.15
2018-12-27T22:53:35.264Z,0.15
2018-12-27T22:57:42.665Z,0.20
2018-12-27T23:02:08.709Z,0.32
2018-12-27T23:06:16.769Z,0.28
2018-12-27T23:10:26.184Z,0.29
2018-12-27T23:14:33.272Z,0.32
2018-12-27T23:18:40.322Z,0.23
2018-12-27T23:22:47.415Z,0.19
2018-12-27T23:26:54.375Z,0.28
2018-12-27T23:31:01.524Z,0.34
2018-12-27T23:39:34.066Z,0.35
2018-12-27T23:43:42.830Z,0.18
2018-12-27T23:47:50.152Z,0.29
2018-12-27T23:51:57.071Z,0.22
